Time;durP1;ratioP1;P1;durP2;ratioP2;P2;SDS_P1;SDS_P2;PMS_P1;PMS_P2;Temp;Humidity;BMP_temperature;BMP_pressure;BME280_temperature;BME280_humidity;BME280_pressure;Samples;Min_cycle;Max_cycle;Signal;HPM_P1;HPM_P2
2022/04/30 00:02:12;;;;;;;17.88;11.40;;;;;;;18.02;60.72;100116.00;5112362;28;20555;-48
2022/04/30 00:04:43;;;;;;;17.05;11.20;;;;;;;18.06;60.85;100120.63;5112521;28;20023;-48
2022/04/30 00:07:12;;;;;;;16.05;11.48;;;;;;;17.84;60.99;100115.16;5112467;28;20031;-47
2022/04/30 00:09:37;;;;;;;15.07;11.20;;;;;;;17.68;62.01;100113.22;5112913;28;20026;-47
2022/04/30 00:12:04;;;;;;;17.60;12.05;;;;;;;17.50;62.30;100117.72;5112754;28;20390;-46
2022/04/30 00:14:29;;;;;;;15.50;11.20;;;;;;;17.34;62.70;100116.63;5111190;28;20019;-48
2022/04/30 00:16:55;;;;;;;15.27;11.63;;;;;;;17.03;63.07;100107.09;5112367;28;20016;-47
2022/04/30 00:19:22;;;;;;;16.75;11.60;;;;;;;16.50;65.58;100118.81;5112175;28;20051;-47
2022/04/30 00:21:48;;;;;;;16.08;11.30;;;;;;;16.60;64.92;100114.50;5112283;28;20051;-47
2022/04/30 00:24:13;;;;;;;15.98;12.02;;;;;;;16.41;64.84;100110.28;5111811;28;20483;-50
2022/04/30 00:26:39;;;;;;;17.00;12.00;;;;;;;16.53;65.18;100121.03;5112036;28;20518;-47
2022/04/30 00:29:04;;;;;;;16.70;11.70;;;;;;;16.51;64.98;100115.91;5112640;28;20148;-46
2022/04/30 00:31:30;;;;;;;16.48;12.05;;;;;;;16.79;64.34;100114.34;5112418;28;20011;-46
2022/04/30 00:33:56;;;;;;;18.52;12.63;;;;;;;16.92;63.69;100119.50;5112063;28;20035;-50
2022/04/30 00:36:22;;;;;;;19.00;12.70;;;;;;;16.98;63.66;100115.91;5112236;28;20088;-47
2022/04/30 00:38:47;;;;;;;17.52;11.93;;;;;;;17.17;62.95;100113.88;5112354;28;20099;-47
2022/04/30 00:41:14;;;;;;;19.58;12.73;;;;;;;16.86;63.81;100115.09;5112031;28;20061;-48
2022/04/30 00:43:49;;;;;;;18.88;12.43;;;;;;;16.59;64.92;100104.78;5112062;28;20034;-46
2022/04/30 00:46:16;;;;;;;16.83;12.10;;;;;;;16.02;66.84;100105.31;5111791;28;20024;-50
2022/04/30 00:48:42;;;;;;;20.60;12.48;;;;;;;16.18;66.80;100105.69;5111699;28;20069;-49
2022/04/30 00:51:16;;;;;;;19.67;12.73;;;;;;;16.40;66.35;100103.28;5112226;28;20046;-49
2022/04/30 00:53:46;;;;;;;19.33;12.68;;;;;;;16.29;66.50;100099.53;5112040;28;20027;-48
2022/04/30 00:56:14;;;;;;;18.50;12.90;;;;;;;16.21;66.69;100110.63;5111604;28;20034;-49
2022/04/30 00:58:45;;;;;;;18.35;13.18;;;;;;;16.27;66.36;100103.50;5111755;28;20487;-47
2022/04/30 01:01:11;;;;;;;17.45;12.93;;;;;;;16.44;65.68;100111.69;5112074;28;20023;-50
2022/04/30 01:03:36;;;;;;;16.67;12.38;;;;;;;16.40;67.19;100101.41;5111596;28;20022;-47
2022/04/30 01:06:03;;;;;;;17.05;12.35;;;;;;;16.22;67.14;100096.13;5111231;28;20055;-47
2022/04/30 01:08:29;;;;;;;19.63;13.02;;;;;;;16.47;66.30;100095.09;5111004;28;20031;-49
2022/04/30 01:10:56;;;;;;;18.38;12.65;;;;;;;16.70;65.86;100099.66;5111583;28;20531;-50
2022/04/30 01:13:22;;;;;;;17.83;12.77;;;;;;;16.58;66.08;100086.22;5111307;28;20108;-48
2022/04/30 01:15:48;;;;;;;19.13;13.50;;;;;;;16.48;66.44;100081.44;5111737;28;20053;-50
2022/04/30 01:18:14;;;;;;;18.80;12.63;;;;;;;16.14;68.01;100086.56;5110554;28;20399;-49
2022/04/30 01:20:43;;;;;;;18.42;12.95;;;;;;;16.56;66.16;100086.47;5111356;28;20028;-48
2022/04/30 01:23:09;;;;;;;18.50;12.73;;;;;;;16.25;67.14;100084.94;5111278;28;20031;-50
2022/04/30 01:25:40;;;;;;;20.27;13.30;;;;;;;16.60;65.83;100086.78;5111372;28;20031;-49
2022/04/30 01:28:06;;;;;;;17.75;12.55;;;;;;;16.44;66.28;100092.91;5110695;28;20073;-51
2022/04/30 01:30:31;;;;;;;19.33;12.88;;;;;;;16.18;67.49;100087.75;5111064;28;20027;-47
2022/04/30 01:38:33;;;;;;;16.05;12.48;;;;;;;16.07;68.31;100080.50;5110785;28;20023;-49
2022/04/30 01:40:59;;;;;;;21.23;12.98;;;;;;;16.29;67.71;100088.78;5111180;28;20472;-47
2022/04/30 01:43:26;;;;;;;17.83;12.77;;;;;;;16.58;65.95;100097.81;5110802;28;20041;-50
2022/04/30 01:45:53;;;;;;;20.20;13.57;;;;;;;16.54;65.85;100085.06;5111089;28;20027;-46
2022/04/30 01:48:20;;;;;;;20.00;12.57;;;;;;;16.35;66.37;100085.16;5111092;28;20031;-46
2022/04/30 01:50:45;;;;;;;17.67;12.23;;;;;;;16.23;67.05;100095.09;5111012;28;20062;-50
2022/04/30 01:53:11;;;;;;;19.00;12.50;;;;;;;16.53;66.32;100088.81;5111151;28;20182;-49
2022/04/30 01:55:38;;;;;;;16.67;12.07;;;;;;;16.39;66.32;100088.22;5111159;28;20021;-49
2022/04/30 01:58:03;;;;;;;19.20;12.45;;;;;;;15.79;68.04;100073.09;5110727;28;20020;-48
2022/04/30 02:00:30;;;;;;;20.63;12.65;;;;;;;15.97;67.58;100090.97;5110479;28;20024;-48
2022/04/30 02:03:03;;;;;;;16.50;12.90;;;;;;;16.24;66.55;100086.00;5110253;28;20653;-50
2022/04/30 02:05:29;;;;;;;19.58;13.20;;;;;;;16.28;67.22;100089.84;5110652;28;20139;-51
2022/04/30 02:08:00;;;;;;;19.15;12.77;;;;;;;16.28;66.25;100083.63;5110648;28;20032;-50
2022/04/30 02:10:27;;;;;;;18.73;12.95;;;;;;;16.46;65.70;100077.34;5110250;28;20027;-47
2022/04/30 02:12:52;;;;;;;19.52;12.43;;;;;;;16.09;66.77;100077.56;5110889;28;20411;-50
2022/04/30 02:15:19;;;;;;;18.23;12.32;;;;;;;16.14;66.62;100083.88;5111071;28;20031;-49
2022/04/30 02:17:46;;;;;;;18.90;12.68;;;;;;;16.16;66.71;100086.31;5110483;28;20028;-50
2022/04/30 02:20:25;;;;;;;20.55;12.80;;;;;;;15.79;68.51;100073.09;5110848;28;20391;-48
2022/04/30 02:22:54;;;;;;;18.27;11.77;;;;;;;15.99;67.79;100075.44;5110722;28;20032;-47
2022/04/30 02:25:21;;;;;;;19.92;13.23;;;;;;;15.99;67.68;100054.81;5110550;28;20186;-49
2022/04/30 02:27:48;;;;;;;20.83;12.85;;;;;;;16.13;66.88;100062.66;5110400;28;20034;-47
2022/04/30 02:30:17;;;;;;;21.25;13.05;;;;;;;16.47;66.43;100066.38;5113154;28;20061;-49
2022/04/30 02:32:47;;;;;;;18.60;12.77;;;;;;;16.22;66.07;100070.13;5113634;28;20027;-48
2022/04/30 02:35:17;;;;;;;19.58;13.02;;;;;;;15.81;68.24;100081.72;5114241;28;20437;-48
2022/04/30 02:37:45;;;;;;;18.85;13.48;;;;;;;15.86;68.66;100070.28;5114609;28;20024;-49
2022/04/30 02:40:13;;;;;;;20.50;12.98;;;;;;;16.02;67.97;100077.69;5114358;28;20031;-48
2022/04/30 02:42:39;;;;;;;18.73;12.38;;;;;;;16.25;67.48;100082.25;5113719;28;20038;-49
2022/04/30 02:45:06;;;;;;;21.60;13.02;;;;;;;16.53;66.39;100080.75;5113979;28;20155;-47
2022/04/30 02:47:31;;;;;;;21.52;13.48;;;;;;;16.24;67.38;100080.63;5113963;28;20028;-48
2022/04/30 02:49:57;;;;;;;19.08;12.43;;;;;;;16.24;67.02;100083.31;5114160;28;20084;-51
2022/04/30 02:52:23;;;;;;;18.23;12.95;;;;;;;16.31;67.28;100073.25;5114510;28;20031;-47
2022/04/30 02:54:48;;;;;;;17.95;12.88;;;;;;;16.41;66.88;100080.72;5113623;28;20490;-47
2022/04/30 02:57:14;;;;;;;19.38;12.90;;;;;;;16.32;67.12;100087.53;5113976;28;20102;-51
2022/04/30 02:59:54;;;;;;;17.42;12.93;;;;;;;15.95;67.83;100087.69;5114157;28;20023;-48
2022/04/30 03:02:21;;;;;;;17.27;12.32;;;;;;;15.94;68.39;100086.88;5113515;28;20028;-50
2022/04/30 03:04:51;;;;;;;18.95;13.13;;;;;;;16.27;67.03;100080.16;5113282;28;20027;-49
2022/04/30 03:07:19;;;;;;;;;;;;;;;16.65;66.82;100078.84;5113759;28;20027;-48
2022/04/30 03:09:49;;;;;;;20.65;13.25;;;;;;;16.55;65.58;100070.59;5113392;28;19927;-48
2022/04/30 03:12:15;;;;;;;19.63;12.85;;;;;;;16.86;65.40;100082.84;5113915;28;20089;-49
2022/04/30 03:14:42;;;;;;;18.55;13.35;;;;;;;16.69;65.50;100076.53;5112980;28;20027;-49
2022/04/30 03:22:37;;;;;;;20.15;13.05;;;;;;;16.38;67.13;100079.34;5113980;28;20100;-48
2022/04/30 03:25:03;;;;;;;17.73;12.35;;;;;;;16.54;66.21;100079.69;5112996;28;20031;-48
2022/04/30 03:27:28;;;;;;;19.63;13.20;;;;;;;16.64;65.84;100084.47;5113470;28;20402;-48
2022/04/30 03:29:54;;;;;;;20.05;13.50;;;;;;;16.64;66.30;100087.16;5113676;28;20027;-49
2022/04/30 03:32:24;;;;;;;17.60;13.02;;;;;;;16.41;67.04;100075.34;5113547;28;20440;-49
2022/04/30 03:34:52;;;;;;;19.10;13.55;;;;;;;16.42;66.90;100080.50;5113101;28;20027;-47
2022/04/30 03:37:18;;;;;;;26.98;13.48;;;;;;;16.64;65.54;100084.47;5113351;28;20511;-49
2022/04/30 03:39:43;;;;;;;20.80;13.43;;;;;;;16.73;65.42;100086.56;5113326;28;20103;-47
2022/04/30 03:42:09;;;;;;;21.90;13.23;;;;;;;16.99;64.65;100087.13;5112366;28;20448;-48
2022/04/30 03:44:34;;;;;;;17.90;13.02;;;;;;;16.89;65.16;100084.25;5112984;28;20027;-49
2022/04/30 03:47:00;;;;;;;21.33;14.05;;;;;;;16.99;65.28;100090.63;5112510;28;20073;-48
2022/04/30 03:49:25;;;;;;;21.02;13.65;;;;;;;16.84;65.75;100086.81;5113231;28;20027;-47
2022/04/30 03:51:51;;;;;;;21.33;15.13;;;;;;;16.51;66.60;100086.34;5113131;28;20470;-48
2022/04/30 03:54:16;;;;;;;20.95;13.77;;;;;;;16.36;66.83;100096.75;5112907;28;20027;-49
2022/04/30 03:56:42;;;;;;;19.27;13.55;;;;;;;16.35;66.88;100095.91;5112418;28;20399;-49
2022/04/30 03:59:08;;;;;;;19.55;14.18;;;;;;;16.39;67.52;100099.78;5112205;28;20032;-50
2022/04/30 04:01:35;;;;;;;21.77;13.63;;;;;;;16.49;66.83;100090.34;5112730;28;20023;-48
2022/04/30 04:04:01;;;;;;;23.40;14.10;;;;;;;16.33;66.89;100095.31;5112182;28;20035;-48
2022/04/30 04:06:26;;;;;;;21.52;14.00;;;;;;;16.46;67.30;100094.28;5112475;28;20149;-48
2022/04/30 04:08:52;;;;;;;23.58;14.55;;;;;;;16.61;66.12;100096.50;5111959;28;20034;-51
2022/04/30 04:11:18;;;;;;;18.60;14.13;;;;;;;16.60;65.72;100094.84;5112359;28;20054;-51
2022/04/30 04:19:13;;;;;;;21.33;14.82;;;;;;;16.30;66.85;100111.09;5112323;28;20046;-50
2022/04/30 04:21:38;;;;;;;23.30;14.45;;;;;;;15.82;69.06;100115.53;5112420;28;20399;-50
2022/04/30 04:26:48;;;;;;;23.88;15.02;;;;;;;16.03;68.80;100115.03;5112285;28;20493;-47
2022/04/30 04:29:16;;;;;;;21.73;15.02;;;;;;;16.03;68.42;100117.72;5111944;28;20024;-50
2022/04/30 04:31:44;;;;;;;20.48;14.85;;;;;;;16.40;67.36;100122.91;5111930;28;20478;-49
2022/04/30 04:34:11;;;;;;;25.52;14.77;;;;;;;16.48;66.24;100113.66;5111970;28;20016;-48
2022/04/30 04:36:36;;;;;;;24.88;15.40;;;;;;;16.59;66.75;100125.47;5111982;28;20372;-49
2022/04/30 04:39:14;;;;;;;21.30;15.07;;;;;;;16.80;66.52;100124.06;5111857;28;20038;-48
2022/04/30 04:41:43;;;;;;;20.33;13.93;;;;;;;16.86;65.58;100122.34;5111784;28;20065;-47
2022/04/30 04:44:10;;;;;;;20.30;13.98;;;;;;;16.89;65.41;100117.31;5111484;28;20044;-49
2022/04/30 04:46:37;;;;;;;21.45;14.07;;;;;;;17.04;64.93;100129.44;5111986;28;20094;-51
2022/04/30 04:49:04;;;;;;;19.33;13.38;;;;;;;16.90;64.81;100123.50;5112055;28;20372;-49
2022/04/30 04:51:29;;;;;;;19.38;13.65;;;;;;;16.42;66.60;100131.53;5111675;28;20102;-51
2022/04/30 04:53:55;;;;;;;19.35;13.88;;;;;;;16.39;66.96;100123.97;5110540;28;20438;-51
2022/04/30 04:56:21;;;;;;;18.92;13.77;;;;;;;16.24;66.58;100118.22;5111733;28;20032;-49
2022/04/30 04:58:47;;;;;;;19.90;13.40;;;;;;;16.37;66.78;100130.59;5111651;28;20027;-48
2022/04/30 05:01:12;;;;;;;17.02;12.90;;;;;;;16.63;65.83;100132.00;5110977;28;20029;-48
2022/04/30 05:03:37;;;;;;;18.85;13.55;;;;;;;16.62;65.25;100133.09;5111350;28;20029;-50
2022/04/30 05:06:03;;;;;;;19.55;12.77;;;;;;;16.64;66.35;100141.72;5111219;28;20040;-50
2022/04/30 05:08:29;;;;;;;18.33;12.95;;;;;;;16.81;65.47;100133.75;5111588;28;20459;-51
2022/04/30 05:10:54;;;;;;;17.50;12.73;;;;;;;17.06;64.25;100119.25;5111670;28;20028;-50
2022/04/30 05:13:20;;;;;;;17.35;12.50;;;;;;;16.95;66.16;100134.38;5110733;28;20421;-48
2022/04/30 05:15:45;;;;;;;72.60;51.83;;;;;;;17.32;64.41;100136.72;5111683;28;20019;-50
2022/04/30 05:18:11;;;;;;;21.27;15.05;;;;;;;17.45;63.57;100141.03;5111502;28;20099;-48
2022/04/30 05:20:37;;;;;;;73.20;50.25;;;;;;;17.65;62.78;100143.28;5111280;28;20364;-47
2022/04/30 05:23:03;;;;;;;29.63;18.38;;;;;;;17.62;62.30;100143.78;5106137;28;20523;-50
2022/04/30 05:25:28;;;;;;;19.55;13.40;;;;;;;17.60;62.87;100144.00;5091349;28;20024;-47
2022/04/30 05:27:54;;;;;;;17.45;12.77;;;;;;;17.86;61.82;100148.03;5110142;28;20062;-49
2022/04/30 05:30:19;;;;;;;45.72;32.20;;;;;;;17.83;62.19;100151.16;5104333;28;20020;-50
2022/04/30 05:32:45;;;;;;;24.85;17.30;;;;;;;17.75;62.53;100154.25;5090610;28;20494;-48
2022/04/30 05:35:10;;;;;;;31.73;19.05;;;;;;;17.89;61.89;100158.31;5090813;28;20531;-50
2022/04/30 05:37:36;;;;;;;16.58;11.73;;;;;;;17.78;62.01;100153.75;5108811;28;20042;-48
2022/04/30 05:40:01;;;;;;;17.95;12.25;;;;;;;17.74;62.16;100158.84;5110323;28;20024;-47
2022/04/30 05:42:27;;;;;;;15.30;11.13;;;;;;;17.82;62.04;100162.16;5104858;28;20023;-49
2022/04/30 05:44:52;;;;;;;17.88;11.90;;;;;;;17.72;62.08;100168.19;5089643;28;20135;-47
2022/04/30 05:47:19;;;;;;;15.82;12.13;;;;;;;17.18;63.37;100171.97;5089725;28;20084;-49
2022/04/30 05:49:44;;;;;;;14.80;11.38;;;;;;;17.83;61.70;100175.41;5107760;28;20070;-47
2022/04/30 05:52:11;;;;;;;15.05;11.50;;;;;;;18.23;60.85;100171.00;5106401;28;20074;-49
2022/04/30 05:54:37;;;;;;;16.00;11.73;;;;;;;17.61;63.55;100166.34;5089545;28;20035;-49
2022/04/30 05:57:03;;;;;;;15.93;11.75;;;;;;;18.08;61.42;100152.72;5107349;28;20020;-49
2022/04/30 05:59:29;;;;;;;15.30;11.38;;;;;;;18.14;61.00;100178.66;5110033;28;20501;-47
2022/04/30 06:01:54;;;;;;;19.35;11.55;;;;;;;18.06;61.05;100179.06;5110348;28;20019;-48
2022/04/30 06:04:21;;;;;;;15.55;11.25;;;;;;;18.34;59.60;100173.63;5111588;28;20476;-48
2022/04/30 06:06:46;;;;;;;16.45;11.68;;;;;;;18.32;59.96;100172.25;5114032;28;20635;-47
2022/04/30 06:09:12;;;;;;;40.92;28.58;;;;;;;19.02;58.76;100179.00;5114025;28;20087;-48
2022/04/30 06:11:37;;;;;;;19.50;15.13;;;;;;;19.37;57.70;100175.13;5114137;28;20072;-48
2022/04/30 06:14:02;;;;;;;15.30;11.18;;;;;;;19.62;57.19;100171.09;5114095;28;20039;-48
2022/04/30 06:16:28;;;;;;;15.98;10.32;;;;;;;20.29;54.49;100159.88;5095772;28;20483;-49
2022/04/30 06:18:53;;;;;;;13.35;10.88;;;;;;;20.26;54.02;100157.72;5114289;28;20027;-48
2022/04/30 06:21:20;;;;;;;15.23;11.00;;;;;;;20.19;54.11;100167.09;5114338;28;20019;-47
2022/04/30 06:23:45;;;;;;;16.20;11.63;;;;;;;20.38;53.59;100170.25;5114126;28;20096;-48
2022/04/30 06:26:11;;;;;;;17.88;12.07;;;;;;;20.21;54.16;100168.47;5114113;28;20019;-48
2022/04/30 06:28:36;;;;;;;14.32;11.38;;;;;;;20.19;54.72;100176.03;5113516;28;20019;-47
2022/04/30 06:31:02;;;;;;;14.52;10.95;;;;;;;19.66;56.10;100174.91;5113450;28;20049;-48
2022/04/30 06:33:28;;;;;;;16.13;11.23;;;;;;;19.92;54.96;100171.44;5113529;28;20360;-49
2022/04/30 06:35:53;;;;;;;17.67;11.65;;;;;;;20.53;53.12;100166.84;5113623;28;20016;-47
2022/04/30 06:38:19;;;;;;;15.18;11.60;;;;;;;20.60;54.21;100165.59;5113906;28;20016;-49
2022/04/30 06:40:44;;;;;;;14.77;10.98;;;;;;;20.80;53.54;100172.19;5113714;28;20026;-51
2022/04/30 06:43:09;;;;;;;15.35;10.73;;;;;;;21.37;51.94;100163.28;5095233;28;20042;-47
2022/04/30 06:45:35;;;;;;;15.43;10.95;;;;;;;21.71;50.38;100162.88;5113847;28;20157;-50
2022/04/30 06:48:01;;;;;;;16.85;13.07;;;;;;;21.88;50.59;100159.13;5113591;28;20077;-49
2022/04/30 06:50:26;;;;;;;12.48;10.85;;;;;;;;;;5112661;28;20047;-48
2022/04/30 06:58:20;;;;;;;13.88;9.57;;;;;;;22.78;47.06;100147.75;5113286;28;20076;-36
2022/04/30 07:03:26;;;;;;;12.60;9.40;;;;;;;23.11;45.32;100153.63;5113457;28;20027;-37
2022/04/30 07:05:52;;;;;;;14.25;9.80;;;;;;;22.55;46.92;100157.28;5113074;28;20039;-37
2022/04/30 07:08:18;;;;;;;11.63;8.35;;;;;;;22.48;44.66;100156.75;5111511;28;20020;-38
2022/04/30 07:10:44;;;;;;;10.70;8.55;;;;;;;22.48;45.73;100156.75;5109632;28;20024;-36
2022/04/30 07:13:09;;;;;;;11.93;9.05;;;;;;;22.19;46.38;100147.22;5110788;28;20032;-37
2022/04/30 07:15:35;;;;;;;12.07;8.93;;;;;;;23.03;45.55;100155.84;5112157;28;20024;-37
2022/04/30 07:18:00;;;;;;;10.55;8.35;;;;;;;23.60;44.11;100152.88;5112837;28;20484;-37
2022/04/30 07:20:26;;;;;;;10.13;7.47;;;;;;;23.65;42.18;100162.94;5112191;28;20034;-37
2022/04/30 07:22:52;;;;;;;9.15;7.55;;;;;;;23.78;42.65;100160.41;5112112;28;20034;-37
2022/04/30 07:25:18;;;;;;;10.43;7.65;;;;;;;24.18;42.08;100155.78;5112030;28;20066;-38
2022/04/30 07:27:44;;;;;;;8.20;7.32;;;;;;;24.30;41.53;100158.13;5112109;28;20055;-37
2022/04/30 07:30:09;;;;;;;10.70;7.80;;;;;;;24.43;41.04;100153.13;5111009;28;20049;-37
2022/04/30 07:32:35;;;;;;;11.85;8.40;;;;;;;24.55;40.27;100157.13;5110385;28;20028;-37
2022/04/30 07:35:00;;;;;;;8.93;8.00;;;;;;;24.58;40.25;100156.56;5110201;28;20023;-37
2022/04/30 07:37:25;;;;;;;9.25;7.20;;;;;;;24.49;41.01;100158.25;5110456;28;20019;-37
2022/04/30 07:39:51;;;;;;;10.60;7.90;;;;;;;24.55;40.49;100154.41;5109996;28;20122;-37
2022/04/30 07:42:16;;;;;;;11.88;8.93;;;;;;;23.85;42.46;100154.66;5109584;28;20034;-37
2022/04/30 07:44:42;;;;;;;28.73;22.13;;;;;;;24.08;42.10;100152.31;5109269;28;20100;-38
2022/04/30 07:47:08;;;;;;;9.95;8.60;;;;;;;24.27;41.87;100142.38;5111181;28;20100;-37
2022/04/30 07:49:33;;;;;;;10.32;7.25;;;;;;;25.09;39.43;100148.94;5111422;28;20035;-38
2022/04/30 07:51:59;;;;;;;10.68;7.68;;;;;;;24.99;38.68;100147.16;5111669;28;20111;-37
2022/04/30 07:54:25;;;;;;;8.48;7.28;;;;;;;24.66;40.16;100146.16;5111251;28;20034;-37
2022/04/30 07:56:55;;;;;;;10.93;8.68;;;;;;;25.01;38.95;100147.66;5111740;28;20084;-36
2022/04/30 07:59:22;;;;;;;9.77;8.00;;;;;;;24.53;39.60;100150.34;5111357;28;20051;-38
2022/04/30 08:01:48;;;;;;;9.48;7.50;;;;;;;24.40;40.03;100149.06;5111243;28;20024;-37
2022/04/30 08:04:14;;;;;;;11.40;8.15;;;;;;;24.26;39.94;100145.41;5111508;28;20024;-37
2022/04/30 08:06:39;;;;;;;9.88;7.93;;;;;;;24.64;39.97;100141.00;5110942;28;20066;-37
2022/04/30 08:09:05;;;;;;;12.77;7.53;;;;;;;25.06;39.91;100144.09;5111077;28;20024;-37
2022/04/30 08:11:31;;;;;;;9.57;7.65;;;;;;;25.15;40.61;100142.31;5111099;28;20024;-37
2022/04/30 08:13:56;;;;;;;10.93;7.70;;;;;;;24.69;41.94;100134.69;5110765;28;20019;-38
2022/04/30 08:16:22;;;;;;;10.93;7.80;;;;;;;25.39;37.39;100138.78;5110590;28;20032;-38
2022/04/30 08:18:48;;;;;;;8.43;7.22;;;;;;;25.06;37.82;100139.44;5110503;28;20027;-37
2022/04/30 08:21:13;;;;;;;10.48;7.60;;;;;;;24.07;38.12;100145.28;5093173;28;20058;-37
2022/04/30 08:23:39;;;;;;;8.90;7.63;;;;;;;23.43;40.08;100137.75;5111392;28;20047;-36
2022/04/30 08:26:05;;;;;;;9.25;7.50;;;;;;;23.74;40.07;100134.03;5111860;28;20027;-38
2022/04/30 08:28:31;;;;;;;8.73;7.30;;;;;;;24.62;38.75;100136.91;5111067;28;20028;-37
2022/04/30 08:30:58;;;;;;;8.50;7.28;;;;;;;25.18;36.61;100131.66;5111764;28;20489;-38
2022/04/30 08:33:23;;;;;;;9.07;7.38;;;;;;;25.12;37.95;100132.03;5111735;28;20066;-37
2022/04/30 08:35:49;;;;;;;9.50;7.10;;;;;;;25.27;37.47;100128.34;5110848;28;20054;-36
2022/04/30 08:38:14;;;;;;;8.05;7.20;;;;;;;25.58;36.87;100120.53;5111255;28;20074;-39
2022/04/30 08:40:44;;;;;;;8.80;6.60;;;;;;;25.39;36.26;100119.72;5110824;28;20054;-37
2022/04/30 08:43:12;;;;;;;8.43;6.50;;;;;;;25.21;36.16;100124.84;5111102;28;20527;-37
2022/04/30 08:45:39;;;;;;;7.43;6.60;;;;;;;23.98;37.22;100128.75;5111521;28;20391;-37
2022/04/30 08:48:09;;;;;;;6.95;6.18;;;;;;;23.50;37.68;100129.31;5110779;28;20057;-38
2022/04/30 08:50:36;;;;;;;7.13;6.43;;;;;;;23.85;38.03;100121.25;5111276;28;20513;-37
2022/04/30 08:53:02;;;;;;;9.65;6.75;;;;;;;23.23;38.51;100125.09;5111085;28;20451;-37
2022/04/30 08:55:27;;;;;;;9.30;6.68;;;;;;;23.69;38.85;100118.59;5111364;28;20039;-38
2022/04/30 08:57:53;;;;;;;6.93;6.22;;;;;;;24.58;36.74;100106.78;5111198;28;20038;-38
2022/04/30 09:00:19;;;;;;;7.80;6.45;;;;;;;24.51;37.31;100106.28;5111121;28;20023;-38
2022/04/30 09:02:53;;;;;;;7.30;6.55;;;;;;;23.52;39.44;100110.81;5111089;28;20037;-38
2022/04/30 09:05:19;;;;;;;7.47;6.72;;;;;;;23.63;38.52;100111.59;5110249;28;20052;-38
2022/04/30 09:07:55;;;;;;;9.32;6.68;;;;;;;23.78;39.41;100107.97;5110262;28;20470;-38
2022/04/30 09:10:27;;;;;;;9.07;6.50;;;;;;;24.09;37.70;100107.75;5110350;28;20416;-38
2022/04/30 09:12:53;;;;;;;7.00;6.05;;;;;;;24.20;37.64;100104.66;5110055;28;20035;-38
2022/04/30 09:15:19;;;;;;;8.85;6.43;;;;;;;24.59;36.63;100098.31;5091814;28;20031;-36
2022/04/30 09:18:01;;;;;;;7.47;5.70;;;;;;;25.39;34.84;100098.75;5109768;28;20049;-37
2022/04/30 09:20:27;;;;;;;6.63;5.97;;;;;;;25.51;34.82;100092.84;5109899;28;20057;-37
2022/04/30 09:22:53;;;;;;;6.35;5.75;;;;;;;25.96;33.80;100092.50;5109817;28;20032;-37
2022/04/30 09:25:19;;;;;;;7.53;6.72;;;;;;;26.11;34.57;100089.50;5109728;28;20799;-38
2022/04/30 09:27:49;;;;;;;7.13;5.43;;;;;;;26.32;34.44;100087.22;5109325;28;20039;-38
2022/04/30 09:30:29;;;;;;;6.32;5.72;;;;;;;26.11;35.38;100093.03;5109559;28;20062;-38
2022/04/30 09:33:12;;;;;;;6.35;5.47;;;;;;;26.88;33.14;100083.47;5110220;28;20015;-38
2022/04/30 09:38:25;;;;;;;6.78;5.72;;;;;;;27.57;32.25;100077.06;5106712;28;20084;-38
2022/04/30 09:40:57;;;;;;;7.32;4.75;;;;;;;27.80;31.61;100071.63;5113224;28;20019;-38
2022/04/30 09:43:34;;;;;;;4.88;4.38;;;;;;;27.04;31.38;100072.22;5110294;28;20028;-37
2022/04/30 09:46:06;;;;;;;5.65;4.57;;;;;;;26.82;32.29;100060.09;5112970;28;20039;-37
2022/04/30 09:54:03;;;;;;;9.48;7.07;;;;;;;26.76;31.29;100057.78;5112723;28;20068;-37
2022/04/30 09:56:44;;;;;;;6.45;4.70;;;;;;;26.73;30.96;100050.97;5113347;28;20252;-38
2022/04/30 09:59:14;;;;;;;7.43;6.65;;;;;;;26.90;30.69;100053.94;5110787;28;20403;-37
2022/04/30 10:01:42;;;;;;;4.72;4.25;;;;;;;25.93;31.84;100048.34;5112879;28;20401;-37
2022/04/30 10:04:13;;;;;;;5.82;4.50;;;;;;;26.25;31.70;100046.69;5112564;28;20176;-38
2022/04/30 10:06:50;;;;;;;14.18;12.13;;;;;;;26.99;30.90;100047.75;5111822;28;20423;-38
2022/04/30 10:09:22;;;;;;;6.25;4.82;;;;;;;26.50;30.96;100044.59;5112989;28;20043;-37
2022/04/30 10:11:56;;;;;;;7.07;4.20;;;;;;;26.33;31.35;100046.00;5113156;28;20824;-37
2022/04/30 10:14:45;;;;;;;5.13;3.35;;;;;;;26.05;30.23;100036.97;5113007;28;20035;-37
2022/04/30 10:17:20;;;;;;;4.03;3.42;;;;;;;25.40;31.70;100040.44;5113327;28;20054;-38
2022/04/30 10:20:12;;;;;;;4.18;3.50;;;;;;;25.71;30.70;100039.97;5113653;28;20023;-38
2022/04/30 10:22:49;;;;;;;6.82;3.97;;;;;;;25.46;32.35;100033.81;5113439;28;20020;-37
2022/04/30 10:25:14;;;;;;;4.63;3.35;;;;;;;25.89;30.99;100030.13;5112774;28;20428;-37
2022/04/30 10:27:41;;;;;;;4.18;3.65;;;;;;;25.42;30.89;100032.78;5113137;28;20285;-37
2022/04/30 10:30:24;;;;;;;4.90;3.72;;;;;;;24.94;31.71;100024.72;5113409;28;20028;-37
2022/04/30 10:32:59;;;;;;;4.70;3.60;;;;;;;24.72;32.56;100036.97;5112920;28;20027;-37
2022/04/30 10:35:35;;;;;;;4.55;3.30;;;;;;;24.47;32.73;100031.81;5113261;28;20023;-37
2022/04/30 10:38:18;;;;;;;5.82;3.60;;;;;;;23.88;33.56;100023.66;5113039;28;20529;-38
2022/04/30 10:40:47;;;;;;;6.00;4.20;;;;;;;24.76;32.21;100026.31;5112901;28;20031;-37
2022/04/30 10:43:18;;;;;;;4.32;3.60;;;;;;;24.59;32.84;100033.03;5112725;28;20028;-36
2022/04/30 10:45:45;;;;;;;3.88;3.10;;;;;;;24.57;31.36;100021.63;5112578;28;20061;-37
2022/04/30 10:48:10;;;;;;;3.95;3.30;;;;;;;25.40;31.85;100009.66;5112697;28;20056;-38
2022/04/30 10:50:36;;;;;;;3.67;3.30;;;;;;;25.87;29.80;100016.78;5112640;27;20047;-38
2022/04/30 10:53:02;;;;;;;4.03;3.30;;;;;;;25.72;31.41;100008.88;5114117;27;20076;-38
2022/04/30 10:55:29;;;;;;;4.65;3.20;;;;;;;26.00;30.00;100023.41;5113535;27;20020;-38
2022/04/30 10:57:54;;;;;;;5.07;3.95;;;;;;;24.64;31.69;100021.28;5128113;27;20072;-38
2022/04/30 11:00:22;;;;;;;3.95;3.35;;;;;;;24.18;32.84;100010.91;5120393;27;20433;-38
2022/04/30 11:02:49;;;;;;;4.43;3.40;;;;;;;24.34;33.09;100011.53;5119775;27;20019;-38
2022/04/30 11:05:19;;;;;;;3.60;3.05;;;;;;;24.75;32.94;100014.63;5127900;27;20399;-37
2022/04/30 11:07:45;;;;;;;3.83;3.42;;;;;;;25.27;31.02;100008.50;5115305;27;20015;-37
2022/04/30 11:10:11;;;;;;;3.92;3.53;;;;;;;25.60;30.92;100009.34;5125452;27;20023;-37
2022/04/30 11:12:37;;;;;;;17.73;13.02;;;;;;;26.17;30.16;100003.75;5114607;27;20047;-38
2022/04/30 11:15:03;;;;;;;6.80;4.18;;;;;;;26.40;29.83;100001.94;5111793;28;20380;-38
2022/04/30 11:17:29;;;;;;;3.47;3.17;;;;;;;26.10;30.64;99996.00;5128748;27;20437;-38
2022/04/30 11:19:55;;;;;;;3.70;3.10;;;;;;;25.96;29.81;99988.88;5116367;27;20022;-37
2022/04/30 11:22:22;;;;;;;3.88;3.00;;;;;;;26.49;29.76;99994.69;5123979;27;20034;-37
2022/04/30 11:24:48;;;;;;;4.20;3.10;;;;;;;25.93;29.89;99977.47;5123970;27;20571;-37
2022/04/30 11:27:14;;;;;;;3.58;3.10;;;;;;;25.58;30.56;99984.31;5116105;27;20028;-37
2022/04/30 11:29:55;;;;;;;3.38;3.08;;;;;;;25.17;30.73;99977.56;5131667;27;20023;-37
2022/04/30 11:32:22;;;;;;;3.50;3.10;;;;;;;25.80;30.23;99991.03;5123739;27;20023;-37
2022/04/30 11:34:53;;;;;;;3.80;2.85;;;;;;;25.10;29.82;99976.31;5123667;27;20479;-37
2022/04/30 11:37:19;;;;;;;2.90;2.60;;;;;;;24.97;29.91;99970.50;5115401;27;20020;-38
2022/04/30 11:39:44;;;;;;;3.10;2.50;;;;;;;25.14;30.01;99972.72;5128317;27;20025;-38
2022/04/30 11:42:10;;;;;;;2.63;2.40;;;;;;;25.46;29.68;99970.38;5118186;27;20076;-39
2022/04/30 11:44:35;;;;;;;3.05;2.50;;;;;;;24.74;30.16;99963.22;5121231;27;20027;-37
2022/04/30 11:47:00;;;;;;;43.25;33.90;;;;;;;24.17;31.69;99971.19;5125550;27;20031;-38
2022/04/30 11:49:27;;;;;;;7.63;6.10;;;;;;;24.16;31.01;99975.84;5115170;27;20119;-37
2022/04/30 11:51:56;;;;;;;2.58;2.15;;;;;;;24.44;30.11;99969.81;5127666;27;20028;-38
2022/04/30 11:54:27;;;;;;;5.25;2.10;;;;;;;24.47;30.96;99967.31;5120737;27;20197;-38